Time;durP1;ratioP1;P1;durP2;ratioP2;P2;SDS_P1;SDS_P2;PMS_P1;PMS_P2;Temp;Humidity;BMP_temperature;BMP_pressure;BME280_temperature;BME280_humidity;BME280_pressure;Samples;Min_cycle;Max_cycle;Signal;HPM_P1;HPM_P2
2023/04/16 15:53:30;;;;;;;0.87;0.87;;;;;;;10.37;100.00;100985.25;6022946;22;1312739;-75
2023/04/16 15:56:33;;;;;;;0.00;0.00;;;;;;;10.49;100.00;100982.91;4753770;27;8085193;-79
2023/04/16 15:58:59;;;;;;;2.37;2.23;;;;;;;10.56;100.00;100985.25;4973898;28;20216;-79
2023/04/16 16:01:25;;;;;;;0.90;0.90;;;;;;;10.57;100.00;100992.34;5033720;28;20548;-79
2023/04/16 16:03:50;;;;;;;0.33;0.33;;;;;;;10.60;100.00;100992.56;5002035;28;20188;-79
2023/04/16 16:06:17;;;;;;;0.17;0.17;;;;;;;10.64;100.00;100990.84;4921720;28;103760;-79
2023/04/16 16:08:42;;;;;;;4.90;2.87;;;;;;;10.69;100.00;101001.69;5003023;28;20599;-79
2023/04/16 16:11:08;;;;;;;2.07;1.97;;;;;;;10.68;100.00;101002.78;5030270;28;20230;-79
2023/04/16 16:13:34;;;;;;;2.00;1.90;;;;;;;10.73;100.00;101004.66;5030774;28;20262;-80
2023/04/16 16:16:00;;;;;;;3.53;2.73;;;;;;;10.73;100.00;101002.72;5034057;28;20218;-78
2023/04/16 16:18:26;;;;;;;2.93;2.83;;;;;;;10.72;100.00;101003.84;5030553;28;20191;-80
2023/04/16 16:20:55;;;;;;;4.73;4.43;;;;;;;10.73;100.00;101010.13;5029998;28;20645;-74
2023/04/16 16:23:23;;;;;;;5.30;4.83;;;;;;;10.73;100.00;101010.13;5026289;28;20264;-82
2023/04/16 16:25:49;;;;;;;0.83;0.83;;;;;;;10.70;100.00;101011.53;5024891;28;20200;-81
2023/04/16 16:28:15;;;;;;;6.83;6.23;;;;;;;10.71;100.00;101004.97;5026174;28;20187;-81
2023/04/16 16:30:40;;;;;;;0.00;0.00;;;;;;;10.82;100.00;101016.50;5016719;28;20184;-80
2023/04/16 16:33:05;;;;;;;0.87;0.87;;;;;;;10.85;100.00;101015.94;5016763;28;20177;-80
2023/04/16 16:35:31;;;;;;;0.57;0.57;;;;;;;10.87;100.00;101012.91;5013575;28;20242;-80
2023/04/16 16:37:58;;;;;;;0.23;0.23;;;;;;;10.93;100.00;101009.75;5015783;28;20181;-79
2023/04/16 16:40:23;;;;;;;1.13;1.13;;;;;;;10.96;100.00;101013.81;5015933;28;20179;-78
2023/04/16 16:42:49;;;;;;;1.60;1.60;;;;;;;10.99;100.00;101015.94;5015442;28;20185;-79
2023/04/16 16:45:14;;;;;;;0.00;0.00;;;;;;;11.02;100.00;101021.66;5009368;28;20181;-80
2023/04/16 16:47:39;;;;;;;0.00;0.00;;;;;;;11.07;100.00;101020.75;5024046;28;20212;-82
2023/04/16 16:50:06;;;;;;;1.20;1.20;;;;;;;11.13;100.00;101018.72;5034698;28;20242;-80
2023/04/16 16:52:31;;;;;;;2.30;2.20;;;;;;;11.17;100.00;101020.56;5033359;28;20188;-80
2023/04/16 16:54:56;;;;;;;0.00;0.00;;;;;;;11.23;100.00;101024.81;5033696;28;20237;-81
2023/04/16 16:57:25;;;;;;;0.00;0.00;;;;;;;11.22;100.00;101017.72;5032897;28;20227;-81
2023/04/16 16:59:51;;;;;;;0.30;0.30;;;;;;;11.16;100.00;101029.88;5028339;28;20179;-81
2023/04/16 17:02:17;;;;;;;0.00;0.00;;;;;;;11.25;100.00;101035.47;5015457;28;20179;-81
2023/04/16 17:04:42;;;;;;;0.00;0.00;;;;;;;10.93;100.00;101036.28;5012373;28;20178;-80
2023/04/16 17:07:08;;;;;;;2.23;0.57;;;;;;;10.68;100.00;101027.38;5008165;28;20244;-80
2023/04/16 17:09:33;;;;;;;0.20;0.20;;;;;;;10.60;100.00;101024.53;5004873;28;20177;-81
2023/04/16 17:11:59;;;;;;;0.67;0.40;;;;;;;10.57;100.00;101028.69;5004263;28;20623;-81
2023/04/16 17:14:24;;;;;;;4.47;3.07;;;;;;;10.53;100.00;101033.09;5004285;28;20177;-81
2023/04/16 17:16:50;;;;;;;0.00;0.00;;;;;;;10.53;100.00;101037.75;5005863;28;20212;-82
2023/04/16 17:19:16;;;;;;;0.37;0.37;;;;;;;10.48;100.00;101041.38;5004323;28;20195;-82
2023/04/16 17:21:42;;;;;;;1.60;1.50;;;;;;;10.43;100.00;101038.72;5006353;28;20185;-81
2023/04/16 17:24:07;;;;;;;0.00;0.00;;;;;;;10.43;100.00;101034.09;5004970;28;20180;-80
2023/04/16 17:26:32;;;;;;;4.00;3.70;;;;;;;10.37;100.00;101037.97;5002226;28;20283;-81
2023/04/16 17:28:58;;;;;;;0.27;0.27;;;;;;;10.37;100.00;101048.09;5002972;28;20239;-81
2023/04/16 17:31:26;;;;;;;0.63;0.63;;;;;;;10.35;100.00;101042.94;5003140;28;20177;-79
2023/04/16 17:33:51;;;;;;;0.00;0.00;;;;;;;10.35;100.00;101044.84;5001595;28;20174;-79
2023/04/16 17:36:18;;;;;;;0.10;0.10;;;;;;;10.37;100.00;101048.91;5002909;28;20271;-80
2023/04/16 17:38:44;;;;;;;0.63;0.60;;;;;;;10.29;100.00;101051.50;5001522;28;20185;-80
2023/04/16 17:41:10;;;;;;;1.60;1.23;;;;;;;10.23;100.00;101053.47;5002098;28;20181;-80
2023/04/16 17:43:35;;;;;;;0.53;0.53;;;;;;;10.21;100.00;101058.41;5000962;28;20181;-79
2023/04/16 17:46:00;;;;;;;0.00;0.00;;;;;;;10.18;100.00;101055.44;5003638;28;20213;-79
2023/04/16 17:48:26;;;;;;;1.03;1.03;;;;;;;10.14;100.00;101060.69;5003155;28;20181;-79
2023/04/16 17:50:52;;;;;;;0.33;0.33;;;;;;;10.09;100.00;101056.06;5002404;28;20594;-79
2023/04/16 17:53:17;;;;;;;2.13;2.03;;;;;;;10.07;100.00;101063.75;5003283;28;20544;-81
2023/04/16 17:55:50;;;;;;;2.10;1.70;;;;;;;10.07;100.00;101068.41;5003549;28;20228;-80
2023/04/16 17:58:15;;;;;;;0.20;0.17;;;;;;;10.05;100.00;101079.63;5004324;28;20200;-81
2023/04/16 18:00:41;;;;;;;0.13;0.13;;;;;;;9.98;100.00;101070.97;5003362;28;20224;-80
2023/04/16 18:03:08;;;;;;;0.03;0.03;;;;;;;9.93;100.00;101072.94;5002774;28;20710;-80
2023/04/16 18:05:33;;;;;;;0.43;0.43;;;;;;;9.93;100.00;101084.66;5005051;28;20261;-81
2023/04/16 18:07:59;;;;;;;0.10;0.10;;;;;;;9.89;100.00;101082.81;5003605;28;20180;-79
2023/04/16 18:10:25;;;;;;;0.00;0.00;;;;;;;9.88;100.00;101090.19;5003387;28;20174;-80
2023/04/16 18:12:50;;;;;;;0.53;0.53;;;;;;;9.86;100.00;101084.22;5003092;28;20181;-81
2023/04/16 18:15:16;;;;;;;0.00;0.00;;;;;;;9.88;100.00;101083.94;5004417;28;20232;-80
2023/04/16 18:17:41;;;;;;;0.77;0.77;;;;;;;9.81;100.00;101087.00;5002711;28;20204;-81
2023/04/16 18:20:07;;;;;;;0.60;0.60;;;;;;;9.79;100.00;101094.66;5002759;28;20181;-80
2023/04/16 18:22:33;;;;;;;0.00;0.00;;;;;;;9.84;100.00;101089.97;5004256;28;20184;-80
2023/04/16 18:24:59;;;;;;;0.00;0.00;;;;;;;9.78;100.00;101093.84;5002036;28;20173;-79
2023/04/16 18:27:24;;;;;;;0.73;0.73;;;;;;;9.73;100.00;101098.56;5001093;28;20193;-79
2023/04/16 18:29:50;;;;;;;1.03;1.03;;;;;;;9.70;100.00;101099.97;5003216;28;20173;-79
2023/04/16 18:32:15;;;;;;;0.00;0.00;;;;;;;9.67;100.00;101105.16;5000400;28;20214;-81
2023/04/16 18:34:40;;;;;;;0.00;0.00;;;;;;;9.66;100.00;101104.34;5000239;28;20205;-80
2023/04/16 18:37:06;;;;;;;0.00;0.00;;;;;;;9.71;100.00;101109.78;4999826;28;20201;-80
2023/04/16 18:39:32;;;;;;;0.97;0.97;;;;;;;9.65;100.00;101112.81;5002042;28;20184;-79
2023/04/16 18:41:58;;;;;;;0.33;0.33;;;;;;;9.58;100.00;101117.81;5001665;28;20260;-79
2023/04/16 18:44:23;;;;;;;1.33;1.03;;;;;;;9.58;100.00;101117.81;5002325;28;20189;-79
2023/04/16 18:46:48;;;;;;;1.20;0.83;;;;;;;9.56;100.00;101128.22;5000507;28;20189;-80
2023/04/16 18:49:14;;;;;;;0.00;0.00;;;;;;;9.57;100.00;101127.91;5001413;28;20173;-81
2023/04/16 18:51:40;;;;;;;0.73;0.73;;;;;;;9.55;100.00;101135.59;5002528;28;20209;-80
2023/04/16 18:54:06;;;;;;;0.00;0.00;;;;;;;9.56;100.00;101126.28;5004502;28;20177;-79
2023/04/16 18:56:31;;;;;;;0.80;0.80;;;;;;;9.52;100.00;101136.13;5004612;28;20587;-80
2023/04/16 18:58:56;;;;;;;0.00;0.00;;;;;;;9.46;100.00;101134.56;5003913;28;20248;-80
2023/04/16 19:01:22;;;;;;;0.93;0.93;;;;;;;9.44;100.00;101139.50;5002717;28;20188;-79
2023/04/16 19:03:47;;;;;;;0.10;0.10;;;;;;;9.37;100.00;101145.25;5002598;28;20188;-79
2023/04/16 19:06:12;;;;;;;0.73;0.73;;;;;;;9.35;100.00;101142.00;5003082;28;20207;-79
2023/04/16 19:08:38;;;;;;;0.83;0.83;;;;;;;9.34;100.00;101143.13;5003087;28;20170;-80
2023/04/16 19:11:03;;;;;;;0.40;0.40;;;;;;;9.32;100.00;101147.22;5002593;28;20177;-80
2023/04/16 19:13:29;;;;;;;0.10;0.10;;;;;;;9.27;100.00;101148.09;5003194;28;20643;-79
2023/04/16 19:15:59;;;;;;;0.13;0.13;;;;;;;9.21;100.00;101149.22;5004442;28;20201;-78
2023/04/16 19:18:25;;;;;;;1.00;1.00;;;;;;;9.18;100.00;101147.88;5001900;28;20176;-79
2023/04/16 19:20:50;;;;;;;0.40;0.40;;;;;;;9.18;100.00;101147.88;5001627;28;20173;-79
2023/04/16 19:23:15;;;;;;;0.00;0.00;;;;;;;9.16;100.00;101144.63;5000383;28;20220;-78
2023/04/16 19:25:41;;;;;;;0.63;0.63;;;;;;;9.11;100.00;101152.84;5001763;28;20175;-80
2023/04/16 19:28:06;;;;;;;3.20;3.00;;;;;;;9.06;100.00;101150.16;5003047;28;20200;-81
2023/04/16 19:30:31;;;;;;;0.43;0.43;;;;;;;9.06;100.00;101155.59;5002183;28;20180;-81
2023/04/16 19:32:57;;;;;;;2.03;1.77;;;;;;;9.02;100.00;101157.28;5003564;28;20173;-80
2023/04/16 19:35:22;;;;;;;1.83;1.73;;;;;;;8.99;100.00;101163.28;5002914;28;20200;-80
2023/04/16 19:37:48;;;;;;;1.47;1.37;;;;;;;8.95;100.00;101160.31;5002383;28;20263;-80
2023/04/16 19:40:13;;;;;;;0.00;0.00;;;;;;;8.94;100.00;101166.84;5005708;28;20256;-80
2023/04/16 19:42:39;;;;;;;0.53;0.53;;;;;;;8.93;100.00;101167.94;5005383;28;20611;-80
2023/04/16 19:45:05;;;;;;;0.53;0.53;;;;;;;8.97;100.00;101161.94;5005508;28;20166;-80
2023/04/16 19:47:31;;;;;;;4.73;2.90;;;;;;;8.87;100.00;101171.00;5003832;28;20189;-80
2023/04/16 19:49:56;;;;;;;0.43;0.43;;;;;;;8.78;100.00;101156.34;5005820;28;20238;-79
2023/04/16 19:52:21;;;;;;;0.83;0.60;;;;;;;8.72;100.00;101166.47;5002965;28;20181;-80
2023/04/16 19:54:47;;;;;;;0.00;0.00;;;;;;;8.72;100.00;101171.91;5003509;28;20571;-82
2023/04/16 19:57:12;;;;;;;0.10;0.10;;;;;;;8.64;100.00;101161.59;5003639;28;20258;-79
2023/04/16 19:59:37;;;;;;;1.57;1.47;;;;;;;8.60;100.00;101163.25;5000926;28;20185;-78
2023/04/16 20:02:03;;;;;;;0.10;0.10;;;;;;;8.58;100.00;101165.44;5002140;28;20180;-81
2023/04/16 20:04:28;;;;;;;1.00;1.00;;;;;;;8.56;100.00;101170.38;5002084;28;20169;-81
2023/04/16 20:06:54;;;;;;;1.90;1.70;;;;;;;8.53;100.00;101168.16;5002304;28;20224;-81
2023/04/16 20:09:19;;;;;;;0.70;0.70;;;;;;;8.51;100.00;101162.19;5002993;28;20180;-79
2023/04/16 20:11:45;;;;;;;1.40;1.30;;;;;;;8.49;100.00;101175.28;5002620;28;20177;-79
2023/04/16 20:14:11;;;;;;;0.40;0.40;;;;;;;8.44;100.00;101178.03;5001468;28;20385;-80
2023/04/16 20:16:37;;;;;;;0.10;0.10;;;;;;;8.48;100.00;101171.75;5003099;28;20264;-79
2023/04/16 20:19:03;;;;;;;1.40;0.97;;;;;;;8.39;100.00;101173.44;5002036;28;20173;-78
2023/04/16 20:21:28;;;;;;;0.23;0.23;;;;;;;8.35;100.00;101173.16;5003438;28;20180;-79
2023/04/16 20:23:54;;;;;;;0.40;0.40;;;;;;;8.38;100.00;101176.41;5003537;28;20177;-79
2023/04/16 20:26:22;;;;;;;0.20;0.20;;;;;;;8.45;100.00;101179.66;5004125;28;20185;-78
2023/04/16 20:28:48;;;;;;;0.70;0.37;;;;;;;8.37;100.00;101172.06;5002739;28;20652;-78
2023/04/16 20:31:13;;;;;;;0.00;0.00;;;;;;;8.31;100.00;101176.69;5003497;28;20261;-79
2023/04/16 20:33:39;;;;;;;0.00;0.00;;;;;;;8.29;100.00;101184.31;5003206;28;20177;-79
2023/04/16 20:36:05;;;;;;;0.80;0.80;;;;;;;8.35;100.00;101170.44;5003595;28;20234;-79
2023/04/16 20:38:32;;;;;;;0.10;0.10;;;;;;;8.36;100.00;101179.41;5004265;28;20192;-78
2023/04/16 20:41:13;;;;;;;1.27;0.73;;;;;;;8.35;100.00;101177.78;5003742;28;20176;-79
2023/04/16 20:43:40;;;;;;;0.50;0.50;;;;;;;8.38;100.00;101184.56;5007218;28;20274;-78
2023/04/16 20:46:07;;;;;;;1.17;1.10;;;;;;;8.29;100.00;101178.88;5005597;28;20201;-79
2023/04/16 20:48:32;;;;;;;0.00;0.00;;;;;;;8.30;100.00;101175.88;5006521;28;20169;-78
2023/04/16 20:51:02;;;;;;;0.00;0.00;;;;;;;8.32;100.00;101179.13;5007459;28;20165;-79
2023/04/16 20:53:28;;;;;;;0.00;0.00;;;;;;;8.37;100.00;101182.94;5004510;28;20669;-78
2023/04/16 20:55:54;;;;;;;0.23;0.23;;;;;;;8.30;100.00;101183.22;5004223;28;20216;-78
2023/04/16 20:58:20;;;;;;;0.00;0.00;;;;;;;8.33;100.00;101179.94;5003549;28;20185;-78
2023/04/16 21:00:50;;;;;;;0.00;0.00;;;;;;;8.42;100.00;101185.66;5000234;28;20200;-78
2023/04/16 21:03:15;;;;;;;0.23;0.23;;;;;;;8.44;100.00;101181.56;5000605;28;20276;-78
2023/04/16 21:05:41;;;;;;;0.00;0.00;;;;;;;8.54;100.00;101178.00;5001748;28;20197;-78
2023/04/16 21:08:06;;;;;;;0.00;0.00;;;;;;;8.56;100.00;101187.50;5000700;28;20224;-79
2023/04/16 21:10:32;;;;;;;0.00;0.00;;;;;;;8.51;100.00;101190.25;5000857;28;20185;-79
2023/04/16 21:12:57;;;;;;;0.00;0.00;;;;;;;8.67;100.00;101184.72;5001877;28;20589;-79
2023/04/16 21:15:22;;;;;;;0.40;0.40;;;;;;;8.47;100.00;101185.63;5001913;28;20201;-79
2023/04/16 21:17:48;;;;;;;0.67;0.67;;;;;;;8.37;100.00;101186.50;5000169;28;20205;-79
2023/04/16 21:20:14;;;;;;;0.00;0.00;;;;;;;8.53;100.00;101188.03;5000450;28;20177;-79
2023/04/16 21:22:39;;;;;;;1.03;1.03;;;;;;;8.58;100.00;101192.69;5001906;28;20177;-79
2023/04/16 21:25:05;;;;;;;0.30;0.30;;;;;;;8.46;100.00;101193.00;5000299;28;20174;-80
2023/04/16 21:27:31;;;;;;;0.00;0.00;;;;;;;8.42;100.00;101186.50;5001177;28;20197;-79
2023/04/16 21:29:56;;;;;;;0.00;0.00;;;;;;;8.44;100.00;101192.47;5001383;28;20603;-79
2023/04/16 21:32:21;;;;;;;0.00;0.00;;;;;;;8.49;100.00;101194.34;5003731;28;20647;-79
2023/04/16 21:34:47;;;;;;;0.00;0.00;;;;;;;8.36;100.00;101201.19;5001499;28;20197;-79
2023/04/16 21:37:12;;;;;;;0.00;0.00;;;;;;;8.31;100.00;101198.47;5000399;28;20193;-79
2023/04/16 21:39:37;;;;;;;0.13;0.13;;;;;;;8.23;100.00;101188.13;5001521;28;20192;-79
2023/04/16 21:42:03;;;;;;;0.20;0.20;;;;;;;8.26;100.00;101191.16;5001494;28;20208;-79
2023/04/16 21:44:28;;;;;;;0.50;0.50;;;;;;;8.31;100.00;101191.13;5000907;28;20169;-79
2023/04/16 21:46:53;;;;;;;0.10;0.10;;;;;;;8.33;100.00;101197.09;5001570;28;20215;-79
2023/04/16 21:49:18;;;;;;;0.00;0.00;;;;;;;8.29;100.00;101197.94;5000810;28;20208;-79
2023/04/16 21:51:45;;;;;;;0.40;0.40;;;;;;;8.22;100.00;101189.22;4999441;28;20212;-79
2023/04/16 21:54:10;;;;;;;0.43;0.43;;;;;;;8.12;100.00;101190.09;5000023;28;20173;-79
2023/04/16 21:56:36;;;;;;;0.30;0.30;;;;;;;8.09;100.00;101192.53;5002692;28;20209;-78
2023/04/16 21:59:01;;;;;;;0.37;0.37;;;;;;;8.16;100.00;101191.16;5001035;28;20301;-80
2023/04/16 22:01:26;;;;;;;0.00;0.00;;;;;;;8.13;100.00;101190.91;5003601;28;20237;-79
2023/04/16 22:03:52;;;;;;;0.00;0.00;;;;;;;8.18;100.00;101194.44;5003309;28;20252;-79
2023/04/16 22:06:17;;;;;;;0.00;0.00;;;;;;;8.18;100.00;101199.06;5004249;28;20257;-79
2023/04/16 22:08:43;;;;;;;0.00;0.00;;;;;;;8.21;100.00;101198.50;5003916;28;20591;-81
2023/04/16 22:11:08;;;;;;;0.00;0.00;;;;;;;8.19;100.00;101196.06;5003997;28;20708;-79
2023/04/16 22:13:35;;;;;;;0.00;0.00;;;;;;;8.09;100.00;101196.06;5002055;28;20654;-79
2023/04/16 22:16:00;;;;;;;0.00;0.00;;;;;;;8.13;100.00;101193.63;5001940;28;20212;-78
2023/04/16 22:18:27;;;;;;;0.00;0.00;;;;;;;8.11;100.00;101204.00;5002121;28;20177;-79
2023/04/16 22:20:53;;;;;;;0.37;0.37;;;;;;;8.21;100.00;101202.03;5002120;28;20180;-80
2023/04/16 22:23:20;;;;;;;0.00;0.00;;;;;;;8.30;100.00;101205.00;5001470;28;20793;-79
2023/04/16 22:25:46;;;;;;;1.17;1.13;;;;;;;8.12;100.00;101203.72;5001171;28;20193;-80
2023/04/16 22:28:11;;;;;;;0.00;0.00;;;;;;;8.08;100.00;101202.59;5002657;28;20213;-80
2023/04/16 22:30:36;;;;;;;0.00;0.00;;;;;;;8.15;100.00;101210.50;5001565;28;20173;-78
2023/04/16 22:33:02;;;;;;;0.43;0.43;;;;;;;8.06;100.00;101202.06;5003531;28;20177;-80
2023/04/16 22:35:28;;;;;;;0.00;0.00;;;;;;;8.09;100.00;101201.50;5002542;28;20605;-79
2023/04/16 22:37:53;;;;;;;0.60;0.40;;;;;;;7.95;100.00;101211.34;5001156;28;20166;-79
2023/04/16 22:40:18;;;;;;;0.00;0.00;;;;;;;8.00;100.00;101208.63;5001488;28;20177;-78
2023/04/16 22:42:44;;;;;;;2.37;2.27;;;;;;;7.93;100.00;101199.91;5000342;28;20177;-78
2023/04/16 22:45:10;;;;;;;0.00;0.00;;;;;;;7.97;100.00;101203.75;5001390;28;20201;-80
2023/04/16 22:47:35;;;;;;;0.20;0.20;;;;;;;7.87;100.00;101199.13;4999684;28;20204;-79
2023/04/16 22:50:02;;;;;;;0.00;0.00;;;;;;;7.99;100.00;101196.94;4999770;28;20698;-78
2023/04/16 22:52:27;;;;;;;0.13;0.13;;;;;;;7.95;100.00;101195.81;5000193;28;20243;-78
2023/04/16 22:54:52;;;;;;;0.00;0.00;;;;;;;7.92;100.00;101198.28;5000350;28;20728;-78
2023/04/16 22:57:21;;;;;;;0.73;0.73;;;;;;;7.92;100.00;101201.81;4999607;28;20227;-78
2023/04/16 22:59:47;;;;;;;0.00;0.00;;;;;;;8.07;100.00;101206.41;4999780;28;20199;-80
2023/04/16 23:02:12;;;;;;;0.53;0.53;;;;;;;8.01;100.00;101205.63;5000411;28;20201;-79
2023/04/16 23:04:38;;;;;;;1.70;0.93;;;;;;;7.93;100.00;101200.72;4998410;28;20523;-78
2023/04/16 23:07:03;;;;;;;3.13;2.83;;;;;;;7.93;100.00;101208.91;4999549;28;20197;-80
2023/04/16 23:09:28;;;;;;;0.00;0.00;;;;;;;7.92;100.00;101206.44;5000448;28;20203;-79
2023/04/16 23:11:54;;;;;;;0.23;0.23;;;;;;;7.85;100.00;101204.03;4998597;28;20231;-79
2023/04/16 23:14:20;;;;;;;0.30;0.30;;;;;;;7.87;100.00;101207.28;4998018;28;20172;-78
2023/04/16 23:16:45;;;;;;;2.77;2.60;;;;;;;7.92;100.00;101209.16;5001009;28;20684;-80
2023/04/16 23:19:13;;;;;;;1.17;1.17;;;;;;;7.80;100.00;101208.63;5000014;28;20181;-78
2023/04/16 23:21:39;;;;;;;0.00;0.00;;;;;;;7.84;100.00;101210.56;5000897;28;20631;-80
2023/04/16 23:24:05;;;;;;;0.00;0.00;;;;;;;7.82;100.00;101211.94;5002162;28;20220;-80
2023/04/16 23:26:31;;;;;;;0.17;0.17;;;;;;;7.87;100.00;101215.44;5000144;28;20204;-80
2023/04/16 23:28:57;;;;;;;0.00;0.00;;;;;;;7.82;100.00;101211.94;5001653;28;20184;-78
2023/04/16 23:31:22;;;;;;;0.00;0.00;;;;;;;7.81;100.00;101210.28;4999961;28;20189;-79
2023/04/16 23:33:47;;;;;;;0.27;0.27;;;;;;;7.81;100.00;101204.84;4999619;28;20212;-80
2023/04/16 23:36:13;;;;;;;0.60;0.60;;;;;;;7.69;100.00;101211.41;4998708;28;20219;-80
2023/04/16 23:38:38;;;;;;;0.60;0.60;;;;;;;7.73;100.00;101206.22;5000388;28;20633;-78
2023/04/16 23:41:04;;;;;;;0.50;0.47;;;;;;;7.74;100.00;101210.56;4999363;28;20185;-79
2023/04/16 23:43:29;;;;;;;0.00;0.00;;;;;;;7.69;100.00;101205.13;5002058;28;20611;-80
2023/04/16 23:45:54;;;;;;;0.20;0.20;;;;;;;7.76;100.00;101209.19;5001228;28;20193;-80
2023/04/16 23:48:20;;;;;;;0.00;0.00;;;;;;;7.79;100.00;101207.81;5002740;28;20177;-79
2023/04/16 23:50:45;;;;;;;0.00;0.00;;;;;;;7.82;100.00;101204.59;5002795;28;20188;-79
2023/04/16 23:53:11;;;;;;;0.00;0.00;;;;;;;7.73;100.00;101206.22;5000316;28;20215;-79
2023/04/16 23:55:36;;;;;;;0.00;0.00;;;;;;;7.72;100.00;101207.31;5000934;28;20205;-78
2023/04/16 23:58:02;;;;;;;0.00;0.00;;;;;;;7.84;100.00;101212.47;5000335;28;20212;-80
